sensor_id;sensor_type;location;lat;lon;timestamp;pressure;altitude;pressure_sealevel;temperature
12430;BMP280;6279;42.192;24.326;2023-07-20T00:01:56;98521.97;;;26.85
12430;BMP280;6279;42.192;24.326;2023-07-20T00:04:22;98503.81;;;26.82
12430;BMP280;6279;42.192;24.326;2023-07-20T00:06:47;98499.41;;;26.95
12430;BMP280;6279;42.192;24.326;2023-07-20T00:09:12;98490.28;;;27.01
12430;BMP280;6279;42.192;24.326;2023-07-20T00:11:39;98497.88;;;27.17
12430;BMP280;6279;42.192;24.326;2023-07-20T00:14:05;98483.97;;;27.20
12430;BMP280;6279;42.192;24.326;2023-07-20T00:16:31;98487.72;;;27.14
12430;BMP280;6279;42.192;24.326;2023-07-20T00:18:57;98488.25;;;27.16
12430;BMP280;6279;42.192;24.326;2023-07-20T00:21:22;98472.56;;;27.10
12430;BMP280;6279;42.192;24.326;2023-07-20T00:23:47;98474.66;;;26.90
12430;BMP280;6279;42.192;24.326;2023-07-20T00:26:13;98461.03;;;26.91
12430;BMP280;6279;42.192;24.326;2023-07-20T00:28:38;98459.72;;;26.89
12430;BMP280;6279;42.192;24.326;2023-07-20T00:31:04;98468.97;;;26.96
12430;BMP280;6279;42.192;24.326;2023-07-20T00:33:29;98469.47;;;26.98
12430;BMP280;6279;42.192;24.326;2023-07-20T00:35:55;98467.88;;;27.02
12430;BMP280;6279;42.192;24.326;2023-07-20T00:38:20;98483.13;;;26.97
12430;BMP280;6279;42.192;24.326;2023-07-20T00:40:46;98466.47;;;26.82
12430;BMP280;6279;42.192;24.326;2023-07-20T00:43:11;98478.88;;;26.68
12430;BMP280;6279;42.192;24.326;2023-07-20T00:45:37;98478.09;;;26.67
12430;BMP280;6279;42.192;24.326;2023-07-20T00:48:04;98480.47;;;26.69
12430;BMP280;6279;42.192;24.326;2023-07-20T00:50:31;98479.00;;;26.81
12430;BMP280;6279;42.192;24.326;2023-07-20T00:52:57;98471.75;;;26.86
12430;BMP280;6279;42.192;24.326;2023-07-20T00:55:23;98471.75;;;26.86
12430;BMP280;6279;42.192;24.326;2023-07-20T00:57:49;98469.03;;;26.91
12430;BMP280;6279;42.192;24.326;2023-07-20T01:00:15;98454.81;;;26.73
12430;BMP280;6279;42.192;24.326;2023-07-20T01:02:41;98457.06;;;26.56
12430;BMP280;6279;42.192;24.326;2023-07-20T01:05:07;98451.16;;;26.64
12430;BMP280;6279;42.192;24.326;2023-07-20T01:07:36;98448.91;;;26.76
12430;BMP280;6279;42.192;24.326;2023-07-20T01:10:27;98452.31;;;26.81
12430;BMP280;6279;42.192;24.326;2023-07-20T01:12:55;98443.69;;;26.66
12430;BMP280;6279;42.192;24.326;2023-07-20T01:15:20;98454.47;;;26.51
12430;BMP280;6279;42.192;24.326;2023-07-20T01:17:46;98450.78;;;26.47
12430;BMP280;6279;42.192;24.326;2023-07-20T01:20:13;98449.91;;;26.57
12430;BMP280;6279;42.192;24.326;2023-07-20T01:30:59;98434.84;;;26.70
12430;BMP280;6279;42.192;24.326;2023-07-20T01:33:28;98428.94;;;26.73
12430;BMP280;6279;42.192;24.326;2023-07-20T01:35:57;98430.00;;;26.72
12430;BMP280;6279;42.192;24.326;2023-07-20T01:38:24;98415.88;;;26.72
12430;BMP280;6279;42.192;24.326;2023-07-20T01:40:50;98413.50;;;26.70
12430;BMP280;6279;42.192;24.326;2023-07-20T01:43:15;98406.56;;;26.69
12430;BMP280;6279;42.192;24.326;2023-07-20T01:45:41;98414.06;;;26.67
12430;BMP280;6279;42.192;24.326;2023-07-20T01:48:06;98417.03;;;26.66
12430;BMP280;6279;42.192;24.326;2023-07-20T01:50:32;98404.50;;;26.62
12430;BMP280;6279;42.192;24.326;2023-07-20T01:52:59;98412.88;;;26.50
12430;BMP280;6279;42.192;24.326;2023-07-20T01:55:24;98417.91;;;26.52
12430;BMP280;6279;42.192;24.326;2023-07-20T01:57:50;98415.53;;;26.50
12430;BMP280;6279;42.192;24.326;2023-07-20T02:00:15;98417.44;;;26.45
12430;BMP280;6279;42.192;24.326;2023-07-20T02:02:41;98421.78;;;26.36
12430;BMP280;6279;42.192;24.326;2023-07-20T02:05:07;98417.78;;;26.39
12430;BMP280;6279;42.192;24.326;2023-07-20T02:07:33;98414.03;;;26.12
12430;BMP280;6279;42.192;24.326;2023-07-20T02:09:58;98408.53;;;25.94
12430;BMP280;6279;42.192;24.326;2023-07-20T02:12:24;98414.31;;;26.05
12430;BMP280;6279;42.192;24.326;2023-07-20T02:14:49;98420.78;;;25.99
12430;BMP280;6279;42.192;24.326;2023-07-20T02:17:16;98428.75;;;25.99
12430;BMP280;6279;42.192;24.326;2023-07-20T02:19:41;98419.72;;;25.96
12430;BMP280;6279;42.192;24.326;2023-07-20T02:22:07;98437.03;;;25.98
12430;BMP280;6279;42.192;24.326;2023-07-20T02:24:33;98426.13;;;25.90
12430;BMP280;6279;42.192;24.326;2023-07-20T02:26:58;98416.06;;;25.82
12430;BMP280;6279;42.192;24.326;2023-07-20T02:29:24;98420.66;;;25.76
12430;BMP280;6279;42.192;24.326;2023-07-20T02:31:49;98421.47;;;25.67
12430;BMP280;6279;42.192;24.326;2023-07-20T02:34:15;98425.69;;;25.73
12430;BMP280;6279;42.192;24.326;2023-07-20T02:36:40;98423.06;;;25.68
12430;BMP280;6279;42.192;24.326;2023-07-20T02:39:08;98426.00;;;25.67
12430;BMP280;6279;42.192;24.326;2023-07-20T02:41:33;98421.06;;;25.51
12430;BMP280;6279;42.192;24.326;2023-07-20T02:43:59;98415.47;;;25.47
12430;BMP280;6279;42.192;24.326;2023-07-20T02:46:25;98421.13;;;25.41
12430;BMP280;6279;42.192;24.326;2023-07-20T02:48:50;98416.59;;;25.41
12430;BMP280;6279;42.192;24.326;2023-07-20T02:51:16;98423.22;;;25.44
12430;BMP280;6279;42.192;24.326;2023-07-20T02:53:41;98414.69;;;25.47
12430;BMP280;6279;42.192;24.326;2023-07-20T02:56:06;98413.06;;;25.51
12430;BMP280;6279;42.192;24.326;2023-07-20T02:58:34;98405.63;;;25.48
12430;BMP280;6279;42.192;24.326;2023-07-20T03:01:03;98410.41;;;25.51
12430;BMP280;6279;42.192;24.326;2023-07-20T03:03:28;98411.75;;;25.48
12430;BMP280;6279;42.192;24.326;2023-07-20T03:05:54;98414.72;;;25.32
12430;BMP280;6279;42.192;24.326;2023-07-20T03:08:21;98425.88;;;25.39
12430;BMP280;6279;42.192;24.326;2023-07-20T03:10:46;98412.38;;;25.26
12430;BMP280;6279;42.192;24.326;2023-07-20T03:13:12;98416.72;;;25.07
12430;BMP280;6279;42.192;24.326;2023-07-20T03:15:39;98419.63;;;25.10
12430;BMP280;6279;42.192;24.326;2023-07-20T03:18:04;98413.19;;;25.16
12430;BMP280;6279;42.192;24.326;2023-07-20T03:20:31;98410.31;;;25.08
12430;BMP280;6279;42.192;24.326;2023-07-20T03:22:59;98413.22;;;25.11
12430;BMP280;6279;42.192;24.326;2023-07-20T03:25:24;98414.25;;;25.20
12430;BMP280;6279;42.192;24.326;2023-07-20T03:27:49;98410.53;;;25.21
12430;BMP280;6279;42.192;24.326;2023-07-20T03:30:15;98409.97;;;25.19
12430;BMP280;6279;42.192;24.326;2023-07-20T03:32:40;98411.06;;;25.18
12430;BMP280;6279;42.192;24.326;2023-07-20T03:35:06;98405.72;;;25.18
12430;BMP280;6279;42.192;24.326;2023-07-20T03:37:32;98406.00;;;25.22
12430;BMP280;6279;42.192;24.326;2023-07-20T03:39:57;98412.66;;;25.19
12430;BMP280;6279;42.192;24.326;2023-07-20T03:42:23;98409.44;;;25.27
12430;BMP280;6279;42.192;24.326;2023-07-20T03:44:48;98414.19;;;25.30
12430;BMP280;6279;42.192;24.326;2023-07-20T03:47:13;98414.19;;;25.35
12430;BMP280;6279;42.192;24.326;2023-07-20T03:49:39;98412.56;;;25.39
12430;BMP280;6279;42.192;24.326;2023-07-20T03:52:04;98408.00;;;25.49
12430;BMP280;6279;42.192;24.326;2023-07-20T03:54:30;98410.38;;;25.55
12430;BMP280;6279;42.192;24.326;2023-07-20T03:56:55;98408.25;;;25.52
12430;BMP280;6279;42.192;24.326;2023-07-20T03:59:20;98418.25;;;25.75
12430;BMP280;6279;42.192;24.326;2023-07-20T04:01:46;98411.81;;;25.81
12430;BMP280;6279;42.192;24.326;2023-07-20T04:04:11;98416.25;;;25.95
12430;BMP280;6279;42.192;24.326;2023-07-20T04:06:39;98421.84;;;25.98
12430;BMP280;6279;42.192;24.326;2023-07-20T04:09:04;98426.63;;;26.01
12430;BMP280;6279;42.192;24.326;2023-07-20T04:11:30;98431.09;;;26.11
12430;BMP280;6279;42.192;24.326;2023-07-20T04:13:56;98429.44;;;26.15
12430;BMP280;6279;42.192;24.326;2023-07-20T04:16:21;98436.59;;;26.19
12430;BMP280;6279;42.192;24.326;2023-07-20T04:18:47;98433.88;;;26.24
12430;BMP280;6279;42.192;24.326;2023-07-20T04:21:12;98435.97;;;26.32
12430;BMP280;6279;42.192;24.326;2023-07-20T04:23:38;98424.19;;;26.38
12430;BMP280;6279;42.192;24.326;2023-07-20T04:26:03;98430.03;;;26.40
12430;BMP280;6279;42.192;24.326;2023-07-20T04:28:28;98434.66;;;26.29
12430;BMP280;6279;42.192;24.326;2023-07-20T04:30:54;98438.06;;;26.35
12430;BMP280;6279;42.192;24.326;2023-07-20T04:33:19;98443.84;;;26.46
12430;BMP280;6279;42.192;24.326;2023-07-20T04:35:53;98455.94;;;26.67
12430;BMP280;6279;42.192;24.326;2023-07-20T04:38:19;98449.72;;;26.76
12430;BMP280;6279;42.192;24.326;2023-07-20T04:40:46;98453.81;;;26.92
12430;BMP280;6279;42.192;24.326;2023-07-20T04:43:12;98444.28;;;27.09
12430;BMP280;6279;42.192;24.326;2023-07-20T04:45:37;98441.75;;;27.22
12430;BMP280;6279;42.192;24.326;2023-07-20T04:48:05;98444.25;;;27.37
12430;BMP280;6279;42.192;24.326;2023-07-20T04:50:30;98452.22;;;27.60
12430;BMP280;6279;42.192;24.326;2023-07-20T04:52:56;98446.91;;;27.96
12430;BMP280;6279;42.192;24.326;2023-07-20T04:55:21;98446.53;;;28.20
12430;BMP280;6279;42.192;24.326;2023-07-20T04:57:46;98454.47;;;28.88
12430;BMP280;6279;42.192;24.326;2023-07-20T05:00:12;98454.91;;;29.74
12430;BMP280;6279;42.192;24.326;2023-07-20T05:02:39;98454.03;;;30.35
12430;BMP280;6279;42.192;24.326;2023-07-20T05:05:05;98460.09;;;30.91
12430;BMP280;6279;42.192;24.326;2023-07-20T05:07:34;98457.34;;;31.43
12430;BMP280;6279;42.192;24.326;2023-07-20T05:09:59;98464.13;;;31.87
12430;BMP280;6279;42.192;24.326;2023-07-20T05:12:25;98458.47;;;32.21
12430;BMP280;6279;42.192;24.326;2023-07-20T05:14:51;98454.03;;;32.42
12430;BMP280;6279;42.192;24.326;2023-07-20T05:17:16;98462.91;;;32.59
12430;BMP280;6279;42.192;24.326;2023-07-20T05:19:41;98457.56;;;33.04
12430;BMP280;6279;42.192;24.326;2023-07-20T05:22:07;98457.59;;;33.32
12430;BMP280;6279;42.192;24.326;2023-07-20T05:24:32;98456.16;;;33.35
12430;BMP280;6279;42.192;24.326;2023-07-20T05:26:58;98454.13;;;33.60
12430;BMP280;6279;42.192;24.326;2023-07-20T05:29:24;98444.38;;;33.48
12430;BMP280;6279;42.192;24.326;2023-07-20T05:31:49;98438.25;;;33.67
12430;BMP280;6279;42.192;24.326;2023-07-20T05:34:14;98433.66;;;33.88
12430;BMP280;6279;42.192;24.326;2023-07-20T05:36:40;98433.91;;;33.95
12430;BMP280;6279;42.192;24.326;2023-07-20T05:39:05;98428.63;;;34.06
12430;BMP280;6279;42.192;24.326;2023-07-20T05:41:31;98413.63;;;34.29
12430;BMP280;6279;42.192;24.326;2023-07-20T05:43:57;98412.72;;;34.25
12430;BMP280;6279;42.192;24.326;2023-07-20T05:46:22;98408.84;;;34.14
12430;BMP280;6279;42.192;24.326;2023-07-20T05:48:49;98409.56;;;34.23
12430;BMP280;6279;42.192;24.326;2023-07-20T05:51:15;98414.41;;;34.29
12430;BMP280;6279;42.192;24.326;2023-07-20T05:53:40;98412.97;;;34.52
12430;BMP280;6279;42.192;24.326;2023-07-20T05:56:06;98414.03;;;34.83
12430;BMP280;6279;42.192;24.326;2023-07-20T05:58:35;98416.59;;;34.67
12430;BMP280;6279;42.192;24.326;2023-07-20T06:01:00;98409.50;;;34.63
12430;BMP280;6279;42.192;24.326;2023-07-20T06:03:29;98406.44;;;34.96
12430;BMP280;6279;42.192;24.326;2023-07-20T06:06:01;98414.56;;;35.20
12430;BMP280;6279;42.192;24.326;2023-07-20T06:08:30;98411.66;;;35.60
12430;BMP280;6279;42.192;24.326;2023-07-20T06:10:56;98418.69;;;35.76
12430;BMP280;6279;42.192;24.326;2023-07-20T06:13:22;98408.94;;;35.83
12430;BMP280;6279;42.192;24.326;2023-07-20T06:15:50;98406.44;;;35.78
12430;BMP280;6279;42.192;24.326;2023-07-20T06:18:26;98407.22;;;35.79
12430;BMP280;6279;42.192;24.326;2023-07-20T06:20:52;98404.28;;;36.22
12430;BMP280;6279;42.192;24.326;2023-07-20T06:23:20;98390.31;;;36.63
12430;BMP280;6279;42.192;24.326;2023-07-20T06:25:46;98390.16;;;36.56
12430;BMP280;6279;42.192;24.326;2023-07-20T06:28:12;98390.47;;;36.81
12430;BMP280;6279;42.192;24.326;2023-07-20T06:30:37;98391.72;;;36.57
12430;BMP280;6279;42.192;24.326;2023-07-20T06:33:03;98396.63;;;36.51
12430;BMP280;6279;42.192;24.326;2023-07-20T06:35:28;98390.72;;;36.76
12430;BMP280;6279;42.192;24.326;2023-07-20T06:37:53;98398.88;;;36.91
12430;BMP280;6279;42.192;24.326;2023-07-20T06:40:19;98395.53;;;36.98
12430;BMP280;6279;42.192;24.326;2023-07-20T06:42:44;98396.16;;;37.07
12430;BMP280;6279;42.192;24.326;2023-07-20T06:45:10;98379.19;;;37.09
12430;BMP280;6279;42.192;24.326;2023-07-20T06:47:38;98383.84;;;37.24
12430;BMP280;6279;42.192;24.326;2023-07-20T06:50:04;98377.22;;;37.55
12430;BMP280;6279;42.192;24.326;2023-07-20T06:52:30;98379.09;;;37.70
12430;BMP280;6279;42.192;24.326;2023-07-20T06:54:55;98380.22;;;37.84
12430;BMP280;6279;42.192;24.326;2023-07-20T06:57:21;98377.78;;;37.79
12430;BMP280;6279;42.192;24.326;2023-07-20T06:59:46;98377.84;;;37.83
12430;BMP280;6279;42.192;24.326;2023-07-20T07:02:12;98372.88;;;38.22
12430;BMP280;6279;42.192;24.326;2023-07-20T07:04:37;98371.53;;;38.50
12430;BMP280;6279;42.192;24.326;2023-07-20T07:07:03;98371.59;;;38.35
12430;BMP280;6279;42.192;24.326;2023-07-20T07:09:29;98376.28;;;38.56
12430;BMP280;6279;42.192;24.326;2023-07-20T07:11:54;98365.56;;;38.63
12430;BMP280;6279;42.192;24.326;2023-07-20T07:14:20;98370.31;;;38.69
12430;BMP280;6279;42.192;24.326;2023-07-20T07:16:46;98371.28;;;38.58
12430;BMP280;6279;42.192;24.326;2023-07-20T07:19:11;98369.38;;;39.25
12430;BMP280;6279;42.192;24.326;2023-07-20T07:21:37;98374.38;;;39.48
12430;BMP280;6279;42.192;24.326;2023-07-20T07:24:02;98382.41;;;40.18
12430;BMP280;6279;42.192;24.326;2023-07-20T07:26:28;98373.41;;;40.46
12430;BMP280;6279;42.192;24.326;2023-07-20T07:28:54;98367.19;;;40.17
12430;BMP280;6279;42.192;24.326;2023-07-20T07:31:19;98366.03;;;40.46
12430;BMP280;6279;42.192;24.326;2023-07-20T07:33:46;98362.91;;;40.48
12430;BMP280;6279;42.192;24.326;2023-07-20T07:36:11;98370.13;;;40.66
12430;BMP280;6279;42.192;24.326;2023-07-20T07:38:37;98375.19;;;41.07
12430;BMP280;6279;42.192;24.326;2023-07-20T07:41:03;98365.06;;;40.68
12430;BMP280;6279;42.192;24.326;2023-07-20T07:43:29;98368.88;;;39.96
12430;BMP280;6279;42.192;24.326;2023-07-20T07:45:54;98357.44;;;39.58
12430;BMP280;6279;42.192;24.326;2023-07-20T07:48:20;98346.41;;;40.38
12430;BMP280;6279;42.192;24.326;2023-07-20T07:50:47;98352.88;;;39.94
12430;BMP280;6279;42.192;24.326;2023-07-20T07:53:12;98354.16;;;39.71
12430;BMP280;6279;42.192;24.326;2023-07-20T07:55:38;98349.63;;;39.31
12430;BMP280;6279;42.192;24.326;2023-07-20T07:58:03;98352.97;;;39.47
12430;BMP280;6279;42.192;24.326;2023-07-20T08:00:29;98343.31;;;40.39
12430;BMP280;6279;42.192;24.326;2023-07-20T08:02:54;98347.25;;;41.23
12430;BMP280;6279;42.192;24.326;2023-07-20T08:05:19;98350.97;;;41.02
12430;BMP280;6279;42.192;24.326;2023-07-20T08:07:45;98349.34;;;41.43
12430;BMP280;6279;42.192;24.326;2023-07-20T08:10:11;98353.31;;;42.26
12430;BMP280;6279;42.192;24.326;2023-07-20T08:12:37;98358.19;;;42.97
12430;BMP280;6279;42.192;24.326;2023-07-20T08:15:03;98356.63;;;43.10
12430;BMP280;6279;42.192;24.326;2023-07-20T08:17:29;98360.50;;;43.43
12430;BMP280;6279;42.192;24.326;2023-07-20T08:19:54;98360.31;;;44.22
12430;BMP280;6279;42.192;24.326;2023-07-20T08:22:19;98364.34;;;44.74
12430;BMP280;6279;42.192;24.326;2023-07-20T08:24:45;98372.56;;;43.94
12430;BMP280;6279;42.192;24.326;2023-07-20T08:27:10;98364.25;;;44.24
12430;BMP280;6279;42.192;24.326;2023-07-20T08:29:36;98361.09;;;44.22
12430;BMP280;6279;42.192;24.326;2023-07-20T08:32:03;98363.97;;;45.26
12430;BMP280;6279;42.192;24.326;2023-07-20T08:34:29;98360.31;;;46.11
12430;BMP280;6279;42.192;24.326;2023-07-20T08:36:55;98356.91;;;46.33
12430;BMP280;6279;42.192;24.326;2023-07-20T08:39:21;98353.69;;;46.64
12430;BMP280;6279;42.192;24.326;2023-07-20T08:41:48;98350.78;;;46.48
12430;BMP280;6279;42.192;24.326;2023-07-20T08:44:14;98347.38;;;47.41
12430;BMP280;6279;42.192;24.326;2023-07-20T08:46:40;98351.66;;;48.41
12430;BMP280;6279;42.192;24.326;2023-07-20T08:49:06;98339.88;;;48.37
12430;BMP280;6279;42.192;24.326;2023-07-20T08:51:32;98336.91;;;48.82
12430;BMP280;6279;42.192;24.326;2023-07-20T08:53:59;98330.50;;;50.44
12430;BMP280;6279;42.192;24.326;2023-07-20T08:56:26;98330.25;;;51.45
12430;BMP280;6279;42.192;24.326;2023-07-20T08:58:53;98343.78;;;52.18
12430;BMP280;6279;42.192;24.326;2023-07-20T09:01:19;98335.50;;;53.17
12430;BMP280;6279;42.192;24.326;2023-07-20T09:03:46;98328.81;;;52.67
12430;BMP280;6279;42.192;24.326;2023-07-20T09:06:14;98313.13;;;51.38
12430;BMP280;6279;42.192;24.326;2023-07-20T09:08:40;98300.22;;;50.37
12430;BMP280;6279;42.192;24.326;2023-07-20T09:11:11;98287.84;;;48.71
12430;BMP280;6279;42.192;24.326;2023-07-20T09:13:37;98294.38;;;47.91
12430;BMP280;6279;42.192;24.326;2023-07-20T09:16:02;98296.50;;;47.65
12430;BMP280;6279;42.192;24.326;2023-07-20T09:18:32;98300.75;;;47.28
12430;BMP280;6279;42.192;24.326;2023-07-20T09:21:04;98292.94;;;47.45
12430;BMP280;6279;42.192;24.326;2023-07-20T09:23:34;98279.84;;;48.92
12430;BMP280;6279;42.192;24.326;2023-07-20T09:26:09;98273.09;;;50.81
12430;BMP280;6279;42.192;24.326;2023-07-20T09:28:42;98272.16;;;51.08
12430;BMP280;6279;42.192;24.326;2023-07-20T09:31:19;98265.72;;;51.65
12430;BMP280;6279;42.192;24.326;2023-07-20T09:33:46;98262.94;;;52.37
12430;BMP280;6279;42.192;24.326;2023-07-20T09:36:11;98248.66;;;53.21
12430;BMP280;6279;42.192;24.326;2023-07-20T09:38:37;98253.19;;;50.95
12430;BMP280;6279;42.192;24.326;2023-07-20T09:41:05;98260.91;;;49.06
12430;BMP280;6279;42.192;24.326;2023-07-20T09:43:34;98249.53;;;48.72
12430;BMP280;6279;42.192;24.326;2023-07-20T09:46:00;98249.16;;;49.17
12430;BMP280;6279;42.192;24.326;2023-07-20T09:48:25;98249.03;;;50.05
12430;BMP280;6279;42.192;24.326;2023-07-20T09:50:54;98248.69;;;51.00
12430;BMP280;6279;42.192;24.326;2023-07-20T09:53:20;98243.03;;;51.25
12430;BMP280;6279;42.192;24.326;2023-07-20T09:55:47;98233.03;;;52.11
12430;BMP280;6279;42.192;24.326;2023-07-20T09:58:16;98237.34;;;51.83
12430;BMP280;6279;42.192;24.326;2023-07-20T10:00:43;98226.66;;;50.85
12430;BMP280;6279;42.192;24.326;2023-07-20T10:03:14;98215.00;;;51.23
12430;BMP280;6279;42.192;24.326;2023-07-20T10:05:48;98218.56;;;51.44
12430;BMP280;6279;42.192;24.326;2023-07-20T10:08:16;98215.09;;;51.32
12430;BMP280;6279;42.192;24.326;2023-07-20T10:10:42;98210.44;;;51.50
12430;BMP280;6279;42.192;24.326;2023-07-20T10:13:16;98214.31;;;52.24
12430;BMP280;6279;42.192;24.326;2023-07-20T10:15:46;98199.31;;;51.29
12430;BMP280;6279;42.192;24.326;2023-07-20T10:18:18;98216.97;;;51.56
12430;BMP280;6279;42.192;24.326;2023-07-20T10:20:47;98204.34;;;51.85
12430;BMP280;6279;42.192;24.326;2023-07-20T10:23:14;98201.38;;;52.00
12430;BMP280;6279;42.192;24.326;2023-07-20T10:25:40;98202.97;;;50.72
12430;BMP280;6279;42.192;24.326;2023-07-20T10:28:08;98205.16;;;51.43
12430;BMP280;6279;42.192;24.326;2023-07-20T10:30:34;98205.28;;;51.40
12430;BMP280;6279;42.192;24.326;2023-07-20T10:33:02;98189.69;;;51.54
12430;BMP280;6279;42.192;24.326;2023-07-20T10:35:28;98182.16;;;51.85
12430;BMP280;6279;42.192;24.326;2023-07-20T10:40:30;98175.06;;;51.84
12430;BMP280;6279;42.192;24.326;2023-07-20T10:43:07;98174.16;;;51.36
12430;BMP280;6279;42.192;24.326;2023-07-20T10:45:39;98164.78;;;51.42
12430;BMP280;6279;42.192;24.326;2023-07-20T10:48:17;98161.34;;;52.19
12430;BMP280;6279;42.192;24.326;2023-07-20T10:50:43;98164.84;;;52.02
12430;BMP280;6279;42.192;24.326;2023-07-20T10:53:17;98157.63;;;51.11
12430;BMP280;6279;42.192;24.326;2023-07-20T10:55:43;98153.16;;;50.23
12430;BMP280;6279;42.192;24.326;2023-07-20T10:58:13;98160.06;;;50.76
12430;BMP280;6279;42.192;24.326;2023-07-20T11:01:00;98168.97;;;50.71
12430;BMP280;6279;42.192;24.326;2023-07-20T11:03:31;98161.25;;;50.17
12430;BMP280;6279;42.192;24.326;2023-07-20T11:05:57;98140.44;;;47.86
12430;BMP280;6279;42.192;24.326;2023-07-20T11:08:42;98147.66;;;49.06
12430;BMP280;6279;42.192;24.326;2023-07-20T11:11:28;98148.38;;;48.94
12430;BMP280;6279;42.192;24.326;2023-07-20T11:14:00;98140.66;;;49.29
12430;BMP280;6279;42.192;24.326;2023-07-20T11:16:37;98151.38;;;48.40
12430;BMP280;6279;42.192;24.326;2023-07-20T11:19:04;98147.97;;;48.02
12430;BMP280;6279;42.192;24.326;2023-07-20T11:21:43;98156.63;;;47.12
12430;BMP280;6279;42.192;24.326;2023-07-20T11:24:09;98159.75;;;45.98
12430;BMP280;6279;42.192;24.326;2023-07-20T11:29:12;98175.84;;;45.08
12430;BMP280;6279;42.192;24.326;2023-07-20T11:31:39;98169.91;;;44.26
12430;BMP280;6279;42.192;24.326;2023-07-20T11:34:05;98163.66;;;44.22
12430;BMP280;6279;42.192;24.326;2023-07-20T11:36:31;98157.97;;;44.00
12430;BMP280;6279;42.192;24.326;2023-07-20T11:38:58;98161.44;;;44.04
12430;BMP280;6279;42.192;24.326;2023-07-20T11:41:24;98161.75;;;43.42
12430;BMP280;6279;42.192;24.326;2023-07-20T11:43:51;98167.81;;;42.52
12430;BMP280;6279;42.192;24.326;2023-07-20T11:46:19;98173.50;;;41.58
12430;BMP280;6279;42.192;24.326;2023-07-20T11:48:45;98159.63;;;41.10
12430;BMP280;6279;42.192;24.326;2023-07-20T11:51:17;98150.31;;;41.14
12430;BMP280;6279;42.192;24.326;2023-07-20T11:53:44;98152.91;;;41.74
12430;BMP280;6279;42.192;24.326;2023-07-20T11:56:11;98151.81;;;42.23
12430;BMP280;6279;42.192;24.326;2023-07-20T11:58:42;98147.09;;;42.68
12430;BMP280;6279;42.192;24.326;2023-07-20T12:01:08;98130.59;;;43.12
12430;BMP280;6279;42.192;24.326;2023-07-20T12:03:34;98128.97;;;43.29
12430;BMP280;6279;42.192;24.326;2023-07-20T12:06:07;98135.28;;;43.12
12430;BMP280;6279;42.192;24.326;2023-07-20T12:08:33;98139.28;;;42.84
12430;BMP280;6279;42.192;24.326;2023-07-20T12:10:59;98138.91;;;42.61
12430;BMP280;6279;42.192;24.326;2023-07-20T12:13:38;98130.69;;;42.75
12430;BMP280;6279;42.192;24.326;2023-07-20T12:16:30;98119.34;;;42.83
12430;BMP280;6279;42.192;24.326;2023-07-20T12:19:07;98121.31;;;42.52
12430;BMP280;6279;42.192;24.326;2023-07-20T12:21:37;98118.59;;;42.48
12430;BMP280;6279;42.192;24.326;2023-07-20T12:24:03;98106.50;;;42.46
12430;BMP280;6279;42.192;24.326;2023-07-20T12:26:31;98099.06;;;42.29
12430;BMP280;6279;42.192;24.326;2023-07-20T12:28:57;98101.84;;;42.40
12430;BMP280;6279;42.192;24.326;2023-07-20T12:31:23;98097.50;;;42.52
12430;BMP280;6279;42.192;24.326;2023-07-20T12:33:50;98092.81;;;42.56
12430;BMP280;6279;42.192;24.326;2023-07-20T12:36:16;98090.09;;;42.15
12430;BMP280;6279;42.192;24.326;2023-07-20T12:38:41;98082.31;;;42.03
12430;BMP280;6279;42.192;24.326;2023-07-20T12:41:09;98086.16;;;41.65
12430;BMP280;6279;42.192;24.326;2023-07-20T12:43:35;98079.91;;;41.75
12430;BMP280;6279;42.192;24.326;2023-07-20T12:46:01;98082.22;;;41.55
12430;BMP280;6279;42.192;24.326;2023-07-20T12:48:26;98075.25;;;41.68
12430;BMP280;6279;42.192;24.326;2023-07-20T12:50:52;98073.59;;;41.47
12430;BMP280;6279;42.192;24.326;2023-07-20T12:53:17;98065.50;;;41.71
12430;BMP280;6279;42.192;24.326;2023-07-20T12:55:43;98068.56;;;41.49
12430;BMP280;6279;42.192;24.326;2023-07-20T12:58:09;98071.28;;;41.59
12430;BMP280;6279;42.192;24.326;2023-07-20T13:00:35;98072.03;;;41.46
12430;BMP280;6279;42.192;24.326;2023-07-20T13:03:01;98070.34;;;41.10
12430;BMP280;6279;42.192;24.326;2023-07-20T13:05:31;98064.53;;;41.15
12430;BMP280;6279;42.192;24.326;2023-07-20T13:07:57;98063.22;;;40.79
12430;BMP280;6279;42.192;24.326;2023-07-20T13:10:23;98063.16;;;40.75
12430;BMP280;6279;42.192;24.326;2023-07-20T13:12:49;98056.25;;;40.88
12430;BMP280;6279;42.192;24.326;2023-07-20T13:15:15;98063.53;;;40.67
12430;BMP280;6279;42.192;24.326;2023-07-20T13:17:40;98060.72;;;40.50
12430;BMP280;6279;42.192;24.326;2023-07-20T13:20:07;98059.94;;;40.53
12430;BMP280;6279;42.192;24.326;2023-07-20T13:22:35;98055.25;;;40.50
12430;BMP280;6279;42.192;24.326;2023-07-20T13:25:01;98062.38;;;40.68
12430;BMP280;6279;42.192;24.326;2023-07-20T13:27:27;98061.59;;;40.74
12430;BMP280;6279;42.192;24.326;2023-07-20T13:29:52;98058.09;;;40.70
12430;BMP280;6279;42.192;24.326;2023-07-20T13:32:18;98054.66;;;40.84
12430;BMP280;6279;42.192;24.326;2023-07-20T13:34:44;98059.22;;;40.63
12430;BMP280;6279;42.192;24.326;2023-07-20T13:37:10;98055.75;;;40.72
12430;BMP280;6279;42.192;24.326;2023-07-20T13:39:36;98056.09;;;40.61
12430;BMP280;6279;42.192;24.326;2023-07-20T13:42:02;98050.59;;;40.57
12430;BMP280;6279;42.192;24.326;2023-07-20T13:44:33;98045.03;;;40.40
12430;BMP280;6279;42.192;24.326;2023-07-20T13:46:59;98040.31;;;40.30
12430;BMP280;6279;42.192;24.326;2023-07-20T13:49:25;98044.13;;;40.22
12430;BMP280;6279;42.192;24.326;2023-07-20T13:51:50;98037.50;;;40.17
12430;BMP280;6279;42.192;24.326;2023-07-20T13:54:16;98041.13;;;40.34
12430;BMP280;6279;42.192;24.326;2023-07-20T13:56:41;98040.06;;;40.49
12430;BMP280;6279;42.192;24.326;2023-07-20T13:59:07;98036.59;;;40.59
12430;BMP280;6279;42.192;24.326;2023-07-20T14:01:33;98040.13;;;40.63
12430;BMP280;6279;42.192;24.326;2023-07-20T14:04:00;98033.53;;;40.70
12430;BMP280;6279;42.192;24.326;2023-07-20T14:06:28;98025.94;;;40.40
12430;BMP280;6279;42.192;24.326;2023-07-20T14:08:54;98021.16;;;40.17
12430;BMP280;6279;42.192;24.326;2023-07-20T14:11:20;98021.56;;;40.22
12430;BMP280;6279;42.192;24.326;2023-07-20T14:13:45;98016.97;;;40.36
12430;BMP280;6279;42.192;24.326;2023-07-20T14:16:11;98017.28;;;40.21
12430;BMP280;6279;42.192;24.326;2023-07-20T14:18:36;98012.22;;;40.23
12430;BMP280;6279;42.192;24.326;2023-07-20T14:21:02;98002.03;;;40.10